Ville De Bordeaux — FZCE — position and weather

sailwx.info

Track history (hours):
 
Tides and Currents Weather Stations Pressure Air Temp Water Temp Dewpoint Dewpoint Depression Visibility Wind Speed Wind Dir Waves Ship Positions

Ville De Bordeaux

Last reported at 2016-Dec-05 08:31 UTC. Time now 2016-Dec-05 10:36 UTC.
Position N 36°19' W 006°18'.

Length 150 m; beam 24 m.

Type: Ship. MMSI: 228084000.

Date/timePositionNaut miles runAvg speedWind from/ knotsBaromVisibWave heightAir tempDewpointWater temp
2016-Dec-05 08:31N 36°19' W 006°18'9 9.8
2016-Dec-05 07:33N 36°11' W 006°12'37 9.3
2016-Dec-05 03:33N 35°56' W 005°30'2 2.5
2016-Dec-05 02:33N 35°53' W 005°30'0 0.0
2016-Dec-05 01:27N 35°53' W 005°30'0 0.0
2016-Dec-05 00:33N 35°53' W 005°30'0 0.0
2016-Dec-04 23:30N 35°53' W 005°30'0 0.0
2016-Dec-04 22:33N 35°53' W 005°30'3 0.8
2016-Dec-04 19:13N 35°55' W 005°33'6 1.2
2016-Dec-04 14:27N 35°59' W 005°28'69416.4
2016-Dec-02 20:07N 38°44' E 008°40'1117.0
2016-Dec-02 19:29N 38°46' E 008°53'  
2016-Nov-28 04:33N 35°58' W 005°22'265 8.8
2016-Nov-26 22:24N 38°22' W 010°01'910.3
2016-Nov-26 21:33N 38°30' W 010°03'1010.4
2016-Nov-26 20:33N 38°41' W 010°06'1310.8
2016-Nov-26 19:21N 38°53' W 010°06'810.2
2016-Nov-26 18:33N 39°02' W 010°06'  
Track history (hours):
 
Tides and Currents Weather Stations Pressure Air Temp Water Temp Dewpoint Dewpoint Depression Visibility Wind Speed Wind Dir Waves Ship Positions

Ville De Bordeaux

Last reported at 2016-Dec-05 08:31 UTC. Time now 2016-Dec-05 10:36 UTC.
Position N 36°19' W 006°18'.

Length 150 m; beam 24 m.

Type: Ship. MMSI: 228084000.

Date/timePositionNaut miles runAvg speedWind from/ knotsBaromVisibWave heightAir tempDewpointWater temp
2016-Dec-05 08:31N 36°19' W 006°18'9 9.8
2016-Dec-05 07:33N 36°11' W 006°12'37 9.3
2016-Dec-05 03:33N 35°56' W 005°30'2 2.5
2016-Dec-05 02:33N 35°53' W 005°30'0 0.0
2016-Dec-05 01:27N 35°53' W 005°30'0 0.0
2016-Dec-05 00:33N 35°53' W 005°30'0 0.0
2016-Dec-04 23:30N 35°53' W 005°30'0 0.0
2016-Dec-04 22:33N 35°53' W 005°30'3 0.8
2016-Dec-04 19:13N 35°55' W 005°33'6 1.2
2016-Dec-04 14:27N 35°59' W 005°28'69416.4
2016-Dec-02 20:07N 38°44' E 008°40'1117.0
2016-Dec-02 19:29N 38°46' E 008°53'  
2016-Nov-28 04:33N 35°58' W 005°22'265 8.8
2016-Nov-26 22:24N 38°22' W 010°01'910.3
2016-Nov-26 21:33N 38°30' W 010°03'1010.4
2016-Nov-26 20:33N 38°41' W 010°06'1310.8
2016-Nov-26 19:21N 38°53' W 010°06'810.2
2016-Nov-26 18:33N 39°02' W 010°06'  

Dump ship's entire track history